createdAt,value
2023-03-07T00:02:24.673Z,-2.30
2023-03-07T00:05:26.285Z,-2.28
2023-03-07T00:08:28.080Z,-2.23
2023-03-07T00:11:29.665Z,-2.19
2023-03-07T00:14:31.170Z,-2.16
2023-03-07T00:17:32.800Z,-2.15
2023-03-07T00:20:34.318Z,-2.17
2023-03-07T00:23:38.101Z,-2.19
2023-03-07T00:26:39.690Z,-2.19
2023-03-07T00:29:41.341Z,-2.16
2023-03-07T00:32:42.969Z,-2.09
2023-03-07T00:35:44.700Z,-2.06
2023-03-07T00:38:46.993Z,-2.06
2023-03-07T00:41:48.623Z,-2.05
2023-03-07T00:44:50.547Z,-2.03
2023-03-07T00:47:52.353Z,-2.01
2023-03-07T00:50:54.621Z,-2.01
2023-03-07T00:53:56.204Z,-2.05
2023-03-07T00:56:57.814Z,-2.11
2023-03-07T00:59:59.340Z,-2.11
2023-03-07T01:03:04.137Z,-2.10
2023-03-07T01:06:06.488Z,-2.08
2023-03-07T01:09:08.412Z,-2.09
2023-03-07T01:12:10.079Z,-2.12
2023-03-07T01:15:11.980Z,-2.13
2023-03-07T01:18:13.747Z,-2.16
2023-03-07T01:21:17.157Z,-2.17
2023-03-07T01:24:18.722Z,-2.18
2023-03-07T01:27:20.507Z,-2.17
2023-03-07T01:30:23.723Z,-2.15
2023-03-07T01:33:25.954Z,-2.12
2023-03-07T01:36:31.831Z,-2.10
2023-03-07T01:39:33.475Z,-2.08
2023-03-07T01:42:35.106Z,-2.06
2023-03-07T01:45:36.763Z,-2.02
2023-03-07T01:48:38.317Z,-2.02
2023-03-07T01:51:42.319Z,-2.01
2023-03-07T01:54:50.668Z,-2.02
2023-03-07T01:57:53.246Z,-2.04
2023-03-07T02:00:55.046Z,-2.04
2023-03-07T02:03:58.450Z,-2.02
2023-03-07T02:07:01.387Z,-1.98
2023-03-07T02:10:03.683Z,-1.94
2023-03-07T02:13:05.326Z,-1.91
2023-03-07T02:16:07.554Z,-1.88
2023-03-07T02:19:22.350Z,-1.87
2023-03-07T02:22:24.870Z,-1.87
2023-03-07T02:25:29.313Z,-1.90
2023-03-07T02:28:31.015Z,-1.91
2023-03-07T02:31:32.746Z,-1.94
2023-03-07T02:34:34.585Z,-1.98
2023-03-07T02:37:37.148Z,-2.03
2023-03-07T02:40:38.717Z,-2.11
2023-03-07T02:43:40.357Z,-2.14
2023-03-07T02:46:42.321Z,-2.17
2023-03-07T02:49:43.922Z,-2.16
2023-03-07T02:52:46.591Z,-2.16
2023-03-07T02:55:48.161Z,-2.14
2023-03-07T02:58:49.707Z,-2.10
2023-03-07T03:01:51.358Z,-2.07
2023-03-07T03:04:52.979Z,-2.03
2023-03-07T03:07:54.634Z,-2.01
2023-03-07T03:10:56.310Z,-2.01
2023-03-07T03:13:57.902Z,-2.03
2023-03-07T03:16:59.487Z,-2.05
2023-03-07T03:20:01.085Z,-2.08
2023-03-07T03:23:02.713Z,-2.10
2023-03-07T03:26:07.413Z,-2.15
2023-03-07T03:29:09.086Z,-2.16
2023-03-07T03:32:10.716Z,-2.24
2023-03-07T03:35:12.694Z,-2.24
2023-03-07T03:38:14.486Z,-2.23
2023-03-07T03:41:16.024Z,-2.25
2023-03-07T03:44:17.632Z,-2.28
2023-03-07T03:47:19.284Z,-2.31
2023-03-07T03:50:20.887Z,-2.32
2023-03-07T03:53:22.516Z,-2.33
2023-03-07T03:56:25.750Z,-2.34
2023-03-07T03:59:27.473Z,-2.37
2023-03-07T04:02:29.985Z,-2.39
2023-03-07T04:05:33.594Z,-2.39
2023-03-07T04:08:37.387Z,-2.40
2023-03-07T04:11:38.901Z,-2.49
2023-03-07T04:14:40.520Z,-2.67
2023-03-07T04:17:42.146Z,-2.77
2023-03-07T04:20:44.555Z,-2.81
2023-03-07T04:23:46.237Z,-2.81
2023-03-07T04:26:47.790Z,-2.84
2023-03-07T04:29:49.548Z,-2.87
2023-03-07T04:32:51.193Z,-2.89
2023-03-07T04:35:52.863Z,-2.86
2023-03-07T04:38:55.193Z,-2.84
2023-03-07T04:41:56.947Z,-2.89
2023-03-07T04:44:58.549Z,-2.94
2023-03-07T04:48:00.507Z,-3.00
2023-03-07T04:51:02.342Z,-3.02
2023-03-07T04:54:03.896Z,-2.97
2023-03-07T04:57:05.714Z,-2.95
2023-03-07T05:00:08.799Z,-2.96
2023-03-07T05:03:11.800Z,-2.97
2023-03-07T05:06:15.654Z,-2.93
2023-03-07T05:09:17.321Z,-2.88
2023-03-07T05:12:18.916Z,-2.78
2023-03-07T05:15:20.612Z,-2.65
2023-03-07T05:18:22.572Z,-2.59
2023-03-07T05:21:24.087Z,-2.54
2023-03-07T05:24:25.885Z,-2.48
2023-03-07T05:27:27.459Z,-2.29
2023-03-07T05:30:29.077Z,-2.15
2023-03-07T05:33:30.635Z,-2.04
2023-03-07T05:36:32.295Z,-1.96
2023-03-07T05:39:33.933Z,-1.86
2023-03-07T05:42:35.592Z,-1.75
2023-03-07T05:45:37.231Z,-1.67
2023-03-07T05:48:38.831Z,-1.57
2023-03-07T05:51:40.386Z,-1.49
2023-03-07T05:54:42.093Z,-1.42
2023-03-07T05:57:43.624Z,-1.34
2023-03-07T06:00:45.279Z,-1.25
2023-03-07T06:03:46.924Z,-1.15
2023-03-07T06:06:48.625Z,-1.04
2023-03-07T06:09:50.272Z,-0.94
2023-03-07T06:12:53.021Z,-0.84
2023-03-07T06:15:55.612Z,-0.75
2023-03-07T06:18:57.237Z,-0.68
2023-03-07T06:21:58.825Z,-0.61
2023-03-07T06:25:00.385Z,-0.55
2023-03-07T06:28:02.055Z,-0.47
2023-03-07T06:31:10.504Z,-0.39
2023-03-07T06:34:12.203Z,-0.28
2023-03-07T06:37:14.102Z,-0.15
2023-03-07T06:40:15.814Z,-0.02
2023-03-07T06:43:17.353Z,0.11
2023-03-07T06:46:19.794Z,0.22
2023-03-07T06:49:21.440Z,0.33
2023-03-07T06:52:23.496Z,0.42
2023-03-07T06:55:25.020Z,0.68
2023-03-07T06:58:27.932Z,0.99
2023-03-07T07:01:29.725Z,1.30
2023-03-07T07:04:32.257Z,1.67
2023-03-07T07:07:35.237Z,2.05
2023-03-07T07:10:37.449Z,2.44
2023-03-07T07:13:38.977Z,2.98
2023-03-07T07:16:40.665Z,3.42
2023-03-07T07:19:42.511Z,3.94
2023-03-07T07:22:44.005Z,4.44
2023-03-07T07:25:45.502Z,4.60
2023-03-07T07:28:47.326Z,4.75
2023-03-07T07:31:48.972Z,4.96
2023-03-07T07:34:50.708Z,5.29
2023-03-07T07:37:52.185Z,5.70
2023-03-07T07:40:53.728Z,5.94
2023-03-07T07:43:55.325Z,6.16
2023-03-07T07:46:56.995Z,6.42
2023-03-07T07:49:58.580Z,6.61
2023-03-07T07:53:00.125Z,6.66
2023-03-07T07:56:01.690Z,6.46
2023-03-07T07:59:03.442Z,6.37
2023-03-07T08:02:05.553Z,6.09
2023-03-07T08:05:08.353Z,5.93
2023-03-07T08:08:09.907Z,5.94
2023-03-07T08:11:11.390Z,5.92
2023-03-07T08:14:12.881Z,5.84
2023-03-07T08:17:14.900Z,5.85
2023-03-07T08:20:16.983Z,5.95
2023-03-07T08:23:18.486Z,6.03
2023-03-07T08:26:20.011Z,6.10
2023-03-07T08:29:21.638Z,6.25
2023-03-07T08:32:23.291Z,6.45
2023-03-07T08:35:26.334Z,6.62
2023-03-07T08:38:28.069Z,6.87
2023-03-07T08:41:29.597Z,6.87
2023-03-07T08:44:31.326Z,7.02
2023-03-07T08:47:32.997Z,7.05
2023-03-07T08:50:34.594Z,7.13
2023-03-07T08:53:37.294Z,7.07
2023-03-07T08:56:38.853Z,7.05
2023-03-07T08:59:40.661Z,7.01
2023-03-07T09:02:42.220Z,6.82
2023-03-07T09:05:43.892Z,6.74
2023-03-07T09:08:45.924Z,6.86
2023-03-07T09:11:47.495Z,6.81
2023-03-07T09:14:49.288Z,6.82
2023-03-07T09:17:50.974Z,6.82
2023-03-07T09:20:52.448Z,6.86
2023-03-07T09:23:54.158Z,6.83
2023-03-07T09:26:56.423Z,6.88
2023-03-07T09:29:58.213Z,7.14
2023-03-07T09:32:59.901Z,7.64
2023-03-07T09:36:07.581Z,7.89
2023-03-07T09:39:09.227Z,8.05
2023-03-07T09:42:38.338Z,8.06
2023-03-07T09:46:07.003Z,7.87
2023-03-07T09:49:18.663Z,7.52
2023-03-07T09:52:23.880Z,7.51
2023-03-07T09:55:27.773Z,7.27
2023-03-07T09:58:29.510Z,7.07
2023-03-07T10:01:32.283Z,6.88
2023-03-07T10:04:55.357Z,6.66
2023-03-07T10:07:57.627Z,6.49
2023-03-07T10:11:41.000Z,6.34
2023-03-07T10:15:03.282Z,6.41
2023-03-07T10:18:24.421Z,6.68
2023-03-07T10:21:51.034Z,6.79
2023-03-07T10:25:01.445Z,6.54
2023-03-07T10:28:19.337Z,6.47
2023-03-07T10:31:25.168Z,6.71
2023-03-07T10:34:32.036Z,6.87
2023-03-07T10:37:58.619Z,6.61
2023-03-07T10:41:15.928Z,6.53
2023-03-07T10:44:19.624Z,6.40
2023-03-07T10:47:24.491Z,6.14
2023-03-07T10:50:31.861Z,6.00
2023-03-07T10:53:35.451Z,5.91
2023-03-07T10:56:37.222Z,5.97
2023-03-07T10:59:41.199Z,6.17
2023-03-07T11:02:44.476Z,6.46
2023-03-07T11:05:48.247Z,6.37
2023-03-07T11:08:49.983Z,6.35
2023-03-07T11:12:12.508Z,6.37
2023-03-07T11:15:22.503Z,6.35
2023-03-07T11:18:30.052Z,6.24
2023-03-07T11:21:36.185Z,6.11
2023-03-07T11:24:39.099Z,5.97
2023-03-07T11:27:59.442Z,5.81
2023-03-07T11:31:15.105Z,5.66
2023-03-07T11:34:28.402Z,5.62
2023-03-07T11:37:37.380Z,5.65
2023-03-07T11:40:50.064Z,5.72
2023-03-07T11:44:31.205Z,5.81
2023-03-07T11:47:40.776Z,5.82
2023-03-07T11:50:47.508Z,5.79
2023-03-07T11:54:03.820Z,5.78
2023-03-07T11:57:34.689Z,5.81
2023-03-07T12:01:03.851Z,5.84
2023-03-07T12:04:43.094Z,5.85
2023-03-07T12:07:57.026Z,5.96
2023-03-07T12:11:33.810Z,6.26
2023-03-07T12:15:01.477Z,6.37
2023-03-07T12:18:06.122Z,6.32
2023-03-07T12:21:18.220Z,6.30
2023-03-07T12:24:23.827Z,6.20
2023-03-07T12:27:34.059Z,6.24
2023-03-07T12:30:44.329Z,6.35
2023-03-07T12:34:04.033Z,6.38
2023-03-07T12:37:12.541Z,6.32
2023-03-07T12:40:20.755Z,6.36
2023-03-07T12:43:28.156Z,6.47
2023-03-07T12:46:43.965Z,6.47
2023-03-07T12:50:08.815Z,6.60
2023-03-07T12:53:17.627Z,6.66
2023-03-07T12:56:38.748Z,6.80
2023-03-07T12:59:43.107Z,6.95
2023-03-07T13:02:56.186Z,6.96
2023-03-07T13:05:57.957Z,6.90
2023-03-07T13:09:01.563Z,6.83
2023-03-07T13:12:15.462Z,6.64
2023-03-07T13:15:19.865Z,6.58
2023-03-07T13:18:29.897Z,6.61
2023-03-07T13:21:33.032Z,6.54
2023-03-07T13:24:35.563Z,6.54
2023-03-07T13:27:40.261Z,6.54
2023-03-07T13:31:11.183Z,6.50
2023-03-07T13:34:41.953Z,6.48
2023-03-07T13:37:51.889Z,6.64
2023-03-07T13:40:55.791Z,6.82
2023-03-07T13:43:59.419Z,6.87
2023-03-07T13:47:00.990Z,6.92
2023-03-07T13:50:02.637Z,6.94
2023-03-07T13:53:11.810Z,6.98
2023-03-07T13:56:16.103Z,7.05
2023-03-07T13:59:21.224Z,7.15
2023-03-07T14:02:22.808Z,7.18
2023-03-07T14:05:24.529Z,7.09
2023-03-07T14:08:29.517Z,6.98
2023-03-07T14:12:01.197Z,6.96
2023-03-07T14:15:13.498Z,6.98
2023-03-07T14:18:21.424Z,6.83
2023-03-07T14:21:41.640Z,6.73
2023-03-07T14:24:49.016Z,6.73
2023-03-07T14:27:58.767Z,6.70
2023-03-07T14:31:03.364Z,6.68
2023-03-07T14:34:23.795Z,6.59
2023-03-07T14:37:29.828Z,6.59
2023-03-07T14:41:03.953Z,6.59
2023-03-07T14:44:17.524Z,6.60
2023-03-07T14:47:44.068Z,6.61
2023-03-07T14:50:45.762Z,6.59
2023-03-07T14:53:48.392Z,6.53
2023-03-07T14:56:50.805Z,6.45
2023-03-07T15:00:11.501Z,6.40
2023-03-07T15:03:13.997Z,6.46
2023-03-07T15:06:18.194Z,6.52
2023-03-07T15:09:20.041Z,6.60
2023-03-07T15:12:25.424Z,6.63
2023-03-07T15:15:40.500Z,6.63
2023-03-07T15:18:45.525Z,6.57
2023-03-07T15:21:54.932Z,6.48
2023-03-07T15:24:57.162Z,6.40
2023-03-07T15:28:01.218Z,6.34
2023-03-07T15:31:03.885Z,6.27
2023-03-07T15:34:10.842Z,6.25
2023-03-07T15:37:27.877Z,6.43
2023-03-07T15:40:34.714Z,6.53
2023-03-07T15:43:36.311Z,6.38
2023-03-07T15:46:38.883Z,6.28
2023-03-07T15:49:49.842Z,6.21
2023-03-07T15:52:53.222Z,6.07
2023-03-07T15:56:00.575Z,5.96
2023-03-07T15:59:04.888Z,5.80
2023-03-07T16:02:37.366Z,5.61
2023-03-07T16:05:39.260Z,5.38
2023-03-07T16:08:40.954Z,5.20
2023-03-07T16:11:44.484Z,5.06
2023-03-07T16:14:48.192Z,4.96
2023-03-07T16:17:51.610Z,4.86
2023-03-07T16:20:53.164Z,4.70
2023-03-07T16:23:54.771Z,4.56
2023-03-07T16:26:56.453Z,4.45
2023-03-07T16:29:58.372Z,4.39
2023-03-07T16:32:59.943Z,4.29
2023-03-07T16:36:01.603Z,4.12
2023-03-07T16:39:03.313Z,3.75
2023-03-07T16:42:05.002Z,3.50
2023-03-07T16:45:14.974Z,3.48
2023-03-07T16:48:17.035Z,3.48
2023-03-07T16:51:21.117Z,3.38
2023-03-07T16:54:22.655Z,3.38
2023-03-07T16:57:24.305Z,3.46
2023-03-07T17:00:26.117Z,3.52
2023-03-07T17:03:27.965Z,3.56
2023-03-07T17:06:38.948Z,3.49
2023-03-07T17:09:40.973Z,3.44
2023-03-07T17:12:42.996Z,3.48
2023-03-07T17:15:44.976Z,3.55
2023-03-07T17:18:46.938Z,3.67
2023-03-07T17:21:48.572Z,3.67
2023-03-07T17:24:50.197Z,3.60
2023-03-07T17:28:01.459Z,3.51
2023-03-07T17:31:03.068Z,3.46
2023-03-07T17:34:04.641Z,3.45
2023-03-07T17:37:06.667Z,3.51
2023-03-07T17:40:10.523Z,3.49
2023-03-07T17:43:12.446Z,3.43
2023-03-07T17:46:14.033Z,3.35
2023-03-07T17:49:15.554Z,3.30
2023-03-07T17:52:17.293Z,3.28
2023-03-07T17:55:19.287Z,3.24
2023-03-07T17:58:20.962Z,3.24
2023-03-07T18:01:22.816Z,3.28
2023-03-07T18:04:24.366Z,3.35
2023-03-07T18:07:26.376Z,3.43
2023-03-07T18:10:27.965Z,3.40
2023-03-07T18:13:29.483Z,3.44
2023-03-07T18:16:31.472Z,3.61
2023-03-07T18:19:33.050Z,3.72
2023-03-07T18:22:34.645Z,3.72
2023-03-07T18:25:36.186Z,3.72
2023-03-07T18:28:39.541Z,3.78
2023-03-07T18:31:41.134Z,3.78
2023-03-07T18:34:42.802Z,3.82
2023-03-07T18:37:45.389Z,3.78
2023-03-07T18:40:47.554Z,3.80
2023-03-07T18:43:49.300Z,3.79
2023-03-07T18:46:50.781Z,3.79
2023-03-07T18:49:52.515Z,3.81
2023-03-07T18:52:54.002Z,3.77
2023-03-07T18:55:56.082Z,3.75
2023-03-07T18:58:58.681Z,3.77
2023-03-07T19:02:00.412Z,3.76
2023-03-07T19:05:02.040Z,3.74
2023-03-07T19:08:03.592Z,3.74
2023-03-07T19:11:06.935Z,3.72
2023-03-07T19:14:08.871Z,3.70
2023-03-07T19:17:10.961Z,3.67
2023-03-07T19:20:13.036Z,3.65
2023-03-07T19:23:14.528Z,3.68
2023-03-07T19:26:18.032Z,3.75
2023-03-07T19:29:19.587Z,3.78
2023-03-07T19:32:21.220Z,3.75
2023-03-07T19:35:23.022Z,3.78
2023-03-07T19:38:24.599Z,3.77
2023-03-07T19:41:28.168Z,3.83
2023-03-07T19:44:29.824Z,3.91
2023-03-07T19:47:31.421Z,3.94
2023-03-07T19:50:32.960Z,3.98
2023-03-07T19:53:34.631Z,4.00
2023-03-07T19:56:36.149Z,3.93
2023-03-07T19:59:37.686Z,3.95
2023-03-07T20:02:39.365Z,3.95
2023-03-07T20:05:44.565Z,3.94
2023-03-07T20:08:50.729Z,3.95
2023-03-07T20:11:52.268Z,3.93
2023-03-07T20:14:54.489Z,3.93
2023-03-07T20:17:56.002Z,3.88
2023-03-07T20:21:05.353Z,3.85
2023-03-07T20:24:07.734Z,3.86
2023-03-07T20:27:10.184Z,3.83
2023-03-07T20:30:12.026Z,3.80
2023-03-07T20:33:13.654Z,3.78
2023-03-07T20:36:22.041Z,3.79
2023-03-07T20:39:23.978Z,3.74
2023-03-07T20:42:25.536Z,3.69
2023-03-07T20:45:27.138Z,3.69
2023-03-07T20:48:29.215Z,3.71
2023-03-07T20:51:32.719Z,3.78
2023-03-07T20:54:34.813Z,3.81
2023-03-07T20:57:36.470Z,3.86
2023-03-07T21:00:40.503Z,3.90
2023-03-07T21:03:42.891Z,3.90
2023-03-07T21:06:45.324Z,3.91
2023-03-07T21:09:46.864Z,3.95
2023-03-07T21:12:48.801Z,3.95
2023-03-07T21:15:57.745Z,3.95
2023-03-07T21:19:01.787Z,3.93
2023-03-07T21:22:03.370Z,3.93
2023-03-07T21:25:06.458Z,3.86
2023-03-07T21:28:08.372Z,3.79
2023-03-07T21:31:12.743Z,3.77
2023-03-07T21:34:14.439Z,3.89
2023-03-07T21:37:16.259Z,4.04
2023-03-07T21:40:17.857Z,4.10
2023-03-07T21:43:19.697Z,4.11
2023-03-07T21:46:21.656Z,4.10
2023-03-07T21:49:23.333Z,4.14
2023-03-07T21:52:25.195Z,4.15
2023-03-07T21:55:26.837Z,4.10
2023-03-07T21:58:29.426Z,4.06
2023-03-07T22:01:31.148Z,4.07
2023-03-07T22:04:32.847Z,4.07
2023-03-07T22:07:34.367Z,4.08
2023-03-07T22:10:36.085Z,4.06
2023-03-07T22:13:39.109Z,4.06
2023-03-07T22:16:40.753Z,4.08
2023-03-07T22:19:42.248Z,4.11
2023-03-07T22:22:43.918Z,4.12
2023-03-07T22:25:45.558Z,4.10
2023-03-07T22:28:47.076Z,4.08
2023-03-07T22:31:48.813Z,4.05
2023-03-07T22:34:50.922Z,4.11
2023-03-07T22:37:52.438Z,4.19
2023-03-07T22:40:54.044Z,4.21
2023-03-07T22:43:55.627Z,4.18
2023-03-07T22:46:57.166Z,4.17
2023-03-07T22:49:58.859Z,4.23
2023-03-07T22:53:00.525Z,4.21
2023-03-07T22:56:02.089Z,4.27
2023-03-07T22:59:05.606Z,4.31
2023-03-07T23:02:07.169Z,4.36
2023-03-07T23:05:09.713Z,4.40
2023-03-07T23:08:11.361Z,4.38
2023-03-07T23:11:13.359Z,4.35
2023-03-07T23:14:15.142Z,4.33
2023-03-07T23:17:16.685Z,4.36
2023-03-07T23:20:18.533Z,4.35
2023-03-07T23:23:20.085Z,4.37
2023-03-07T23:26:27.801Z,4.34
2023-03-07T23:29:29.391Z,4.39
2023-03-07T23:32:31.030Z,4.42
2023-03-07T23:35:36.231Z,4.41
2023-03-07T23:38:37.791Z,4.35
2023-03-07T23:41:39.307Z,4.35
2023-03-07T23:44:40.911Z,4.37
2023-03-07T23:47:42.712Z,4.43
2023-03-07T23:50:44.226Z,4.47
2023-03-07T23:53:45.817Z,4.46
2023-03-07T23:56:47.359Z,4.47
2023-03-07T23:59:48.897Z,4.49
